createdAt,value
2016-12-07T00:00:10.329Z,923.7
2016-12-07T00:01:21.000Z,923.69
2016-12-07T00:02:32.220Z,923.71
2016-12-07T00:03:43.408Z,923.73
2016-12-07T00:04:54.076Z,923.8
2016-12-07T00:06:05.253Z,923.83
2016-12-07T00:07:15.945Z,923.87
2016-12-07T00:08:26.624Z,923.87
2016-12-07T00:09:37.315Z,923.84
2016-12-07T00:10:48.161Z,923.82
2016-12-07T00:11:58.856Z,923.81
2016-12-07T00:13:09.537Z,923.8
2016-12-07T00:14:20.219Z,923.79
2016-12-07T00:15:30.912Z,923.81
2016-12-07T00:16:41.597Z,923.86
2016-12-07T00:17:52.300Z,923.9
2016-12-07T00:19:02.977Z,923.93
2016-12-07T00:20:13.665Z,923.94
2016-12-07T00:21:24.353Z,923.97
2016-12-07T00:22:35.539Z,923.98
2016-12-07T00:23:46.241Z,923.98
2016-12-07T00:24:57.468Z,923.99
2016-12-07T00:26:08.150Z,924.05
2016-12-07T00:27:18.832Z,924.06
2016-12-07T00:28:29.507Z,924.09
2016-12-07T00:29:40.165Z,924.11
2016-12-07T00:30:50.875Z,924.14
2016-12-07T00:32:01.587Z,924.17
2016-12-07T00:33:12.251Z,924.16
2016-12-07T00:34:22.937Z,924.11
2016-12-07T00:35:33.602Z,924.07
2016-12-07T00:36:44.805Z,924.08
2016-12-07T00:37:55.546Z,924
2016-12-07T00:39:06.256Z,923.98
2016-12-07T00:40:16.953Z,923.96
2016-12-07T00:41:27.651Z,923.96
2016-12-07T00:42:39.393Z,923.99
2016-12-07T00:43:50.073Z,923.95
2016-12-07T00:45:00.741Z,923.95
2016-12-07T00:46:11.443Z,923.99
2016-12-07T00:47:22.118Z,924
2016-12-07T00:48:32.825Z,924
2016-12-07T00:49:43.501Z,924
2016-12-07T00:50:54.193Z,923.97
2016-12-07T00:52:04.873Z,923.98
2016-12-07T00:53:16.574Z,924.01
2016-12-07T00:54:27.271Z,924.06
2016-12-07T00:55:37.953Z,924.05
2016-12-07T00:56:48.638Z,924.03
2016-12-07T00:57:59.321Z,924.04
2016-12-07T00:59:10.014Z,924.05
2016-12-07T01:00:20.683Z,924.07
2016-12-07T01:01:31.376Z,924.09
2016-12-07T01:02:42.041Z,924.05
2016-12-07T01:03:52.765Z,924.05
2016-12-07T01:05:03.443Z,924.08
2016-12-07T01:06:14.156Z,924.08
2016-12-07T01:07:24.824Z,924.1
2016-12-07T01:08:35.520Z,924.11
2016-12-07T01:09:46.238Z,924.05
2016-12-07T01:10:56.935Z,924.06
2016-12-07T01:12:07.639Z,924.04
2016-12-07T01:13:18.331Z,924.01
2016-12-07T01:14:29.028Z,924.04
2016-12-07T01:15:39.697Z,923.98
2016-12-07T01:16:50.371Z,923.96
2016-12-07T01:18:01.077Z,923.97
2016-12-07T01:19:11.752Z,923.94
2016-12-07T01:20:22.435Z,923.93
2016-12-07T01:21:33.113Z,923.87
2016-12-07T01:22:43.796Z,923.86
2016-12-07T01:23:54.489Z,923.81
2016-12-07T01:25:05.173Z,923.79
2016-12-07T01:26:15.872Z,923.81
2016-12-07T01:27:26.543Z,923.74
2016-12-07T01:28:37.740Z,923.73
2016-12-07T01:29:48.437Z,923.71
2016-12-07T01:30:59.127Z,923.68
2016-12-07T01:32:10.313Z,923.66
2016-12-07T01:33:20.997Z,923.6
2016-12-07T01:34:31.709Z,923.62
2016-12-07T01:35:42.373Z,923.58
2016-12-07T01:36:53.076Z,923.5
2016-12-07T01:38:03.729Z,923.42
2016-12-07T01:39:14.433Z,923.4
2016-12-07T01:40:25.131Z,923.35
2016-12-07T01:41:35.811Z,923.34
2016-12-07T01:42:46.517Z,923.32
2016-12-07T01:43:57.252Z,923.3
2016-12-07T01:45:07.935Z,923.31
2016-12-07T01:46:18.609Z,923.31
2016-12-07T01:47:29.829Z,923.31
2016-12-07T01:48:40.496Z,923.28
2016-12-07T01:49:51.170Z,923.32
2016-12-07T01:51:01.853Z,923.31
2016-12-07T01:52:12.537Z,923.29
2016-12-07T01:53:23.206Z,923.26
2016-12-07T01:54:33.897Z,923.25
2016-12-07T01:55:45.073Z,923.21
2016-12-07T01:56:55.811Z,923.21
2016-12-07T01:58:06.505Z,923.16
2016-12-07T01:59:17.177Z,923.1
2016-12-07T02:00:27.899Z,923.07
2016-12-07T02:01:38.606Z,923.07
2016-12-07T02:02:49.286Z,923.04
2016-12-07T02:04:00.460Z,923.04
2016-12-07T02:05:11.130Z,923.06
2016-12-07T02:06:21.808Z,923.05
2016-12-07T02:07:32.502Z,923.1
2016-12-07T02:08:43.177Z,923.07
2016-12-07T02:09:53.852Z,923.08
2016-12-07T02:11:04.552Z,923.08
2016-12-07T02:12:15.260Z,923.06
2016-12-07T02:13:25.923Z,923.1
2016-12-07T02:14:36.612Z,923.13
2016-12-07T02:15:47.275Z,923.14
2016-12-07T02:16:57.947Z,923.15
2016-12-07T02:18:08.646Z,923.13
2016-12-07T02:19:19.332Z,923.12
2016-12-07T02:20:30.001Z,923.08
2016-12-07T02:21:40.686Z,923.05
2016-12-07T02:22:51.378Z,923.05
2016-12-07T02:24:02.063Z,923.02
2016-12-07T02:25:12.746Z,923.01
2016-12-07T02:26:23.433Z,922.96
2016-12-07T02:27:34.643Z,922.96
2016-12-07T02:28:45.320Z,922.92
2016-12-07T02:29:56.005Z,922.9
2016-12-07T02:31:07.209Z,922.9
2016-12-07T02:32:17.896Z,922.87
2016-12-07T02:33:28.558Z,922.84
2016-12-07T02:34:39.279Z,922.86
2016-12-07T02:35:49.956Z,922.86
2016-12-07T02:37:00.620Z,922.8
2016-12-07T02:38:11.293Z,922.77
2016-12-07T02:39:21.981Z,922.77
2016-12-07T02:40:32.657Z,922.74
2016-12-07T02:41:43.447Z,922.73
2016-12-07T02:42:54.129Z,922.72
2016-12-07T02:44:05.359Z,922.72
2016-12-07T02:45:16.054Z,922.6
2016-12-07T02:46:26.729Z,922.58
2016-12-07T02:47:37.446Z,922.57
2016-12-07T02:48:48.124Z,922.54
2016-12-07T02:49:58.818Z,922.55
2016-12-07T02:51:09.521Z,922.5
2016-12-07T02:52:20.213Z,922.47
2016-12-07T02:53:30.907Z,922.37
2016-12-07T02:54:41.580Z,922.34
2016-12-07T02:55:52.279Z,922.3
2016-12-07T02:57:02.977Z,922.29
2016-12-07T02:58:13.681Z,922.2
2016-12-07T02:59:24.393Z,922.17
2016-12-07T03:00:35.072Z,922.1
2016-12-07T03:01:45.736Z,921.98
2016-12-07T03:02:56.444Z,921.92
2016-12-07T03:04:07.120Z,921.88
2016-12-07T03:05:17.803Z,921.8
2016-12-07T03:06:28.468Z,921.78
2016-12-07T03:07:39.133Z,921.72
2016-12-07T03:08:49.817Z,921.69
2016-12-07T03:10:00.521Z,921.66
2016-12-07T03:11:11.250Z,921.64
2016-12-07T03:12:21.921Z,921.58
2016-12-07T03:13:32.605Z,921.58
2016-12-07T03:14:43.304Z,921.52
2016-12-07T03:15:54.007Z,921.51
2016-12-07T03:17:04.694Z,921.49
2016-12-07T03:18:15.414Z,921.52
2016-12-07T03:19:26.081Z,921.5
2016-12-07T03:20:36.753Z,921.54
2016-12-07T03:21:47.488Z,921.57
2016-12-07T03:22:58.193Z,921.56
2016-12-07T03:24:08.870Z,921.59
2016-12-07T03:25:19.548Z,921.6
2016-12-07T03:26:30.259Z,921.62
2016-12-07T03:27:40.983Z,921.63
2016-12-07T03:28:51.682Z,921.63
2016-12-07T03:30:02.368Z,921.63
2016-12-07T03:31:13.027Z,921.63
2016-12-07T03:32:23.726Z,921.64
2016-12-07T03:33:34.403Z,921.66
2016-12-07T03:34:45.123Z,921.67
2016-12-07T03:35:55.828Z,921.7
2016-12-07T03:37:06.514Z,921.68
2016-12-07T03:38:17.186Z,921.67
2016-12-07T03:39:27.845Z,921.66
2016-12-07T03:40:38.566Z,921.65
2016-12-07T03:41:49.236Z,921.63
2016-12-07T03:42:59.963Z,921.64
2016-12-07T03:44:11.724Z,921.63
2016-12-07T03:45:22.392Z,921.67
2016-12-07T03:46:33.115Z,921.73
2016-12-07T03:47:43.819Z,921.76
2016-12-07T03:48:54.503Z,921.79
2016-12-07T03:50:05.197Z,921.76
2016-12-07T03:51:15.907Z,921.73
2016-12-07T03:52:27.139Z,921.76
2016-12-07T03:53:37.824Z,921.77
2016-12-07T03:54:48.521Z,921.79
2016-12-07T03:55:59.202Z,921.85
2016-12-07T03:57:09.866Z,921.87
2016-12-07T03:58:20.590Z,921.88
2016-12-07T03:59:31.304Z,921.83
2016-12-07T04:00:41.976Z,921.82
2016-12-07T04:01:52.662Z,921.77
2016-12-07T04:03:03.340Z,921.86
2016-12-07T04:04:14.029Z,921.87
2016-12-07T04:05:24.722Z,921.9
2016-12-07T04:06:35.409Z,921.93
2016-12-07T04:07:46.099Z,921.91
2016-12-07T04:08:56.754Z,921.86
2016-12-07T04:10:07.426Z,921.84
2016-12-07T04:11:18.109Z,921.79
2016-12-07T04:12:28.819Z,921.81
2016-12-07T04:13:39.485Z,921.79
2016-12-07T04:14:50.173Z,921.77
2016-12-07T04:16:00.867Z,921.77
2016-12-07T04:17:11.574Z,921.79
2016-12-07T04:18:22.259Z,921.79
2016-12-07T04:19:32.938Z,921.8
2016-12-07T04:20:44.150Z,921.77
2016-12-07T04:21:54.836Z,921.72
2016-12-07T04:23:05.539Z,921.69
2016-12-07T04:24:16.236Z,921.71
2016-12-07T04:25:26.925Z,921.64
2016-12-07T04:26:37.618Z,921.56
2016-12-07T04:27:48.275Z,921.47
2016-12-07T04:28:58.973Z,921.42
2016-12-07T04:30:09.673Z,921.39
2016-12-07T04:31:20.357Z,921.33
2016-12-07T04:32:31.036Z,921.37
2016-12-07T04:33:41.725Z,921.4
2016-12-07T04:34:52.977Z,921.4
2016-12-07T04:36:04.199Z,921.41
2016-12-07T04:37:14.898Z,921.44
2016-12-07T04:38:25.580Z,921.46
2016-12-07T04:39:36.297Z,921.38
2016-12-07T04:40:46.988Z,921.4
2016-12-07T04:41:57.692Z,921.32
2016-12-07T04:43:08.385Z,921.29
2016-12-07T04:44:19.102Z,921.25
2016-12-07T04:45:29.828Z,921.26
2016-12-07T04:46:40.516Z,921.24
2016-12-07T04:47:51.211Z,921.23
2016-12-07T04:49:01.890Z,921.23
2016-12-07T04:50:12.561Z,921.23
2016-12-07T04:51:23.757Z,921.22
2016-12-07T04:52:34.438Z,921.27
2016-12-07T04:53:45.129Z,921.27
2016-12-07T04:54:55.805Z,921.31
2016-12-07T04:56:06.488Z,921.4
2016-12-07T04:57:17.652Z,921.45
2016-12-07T04:58:28.318Z,921.48
2016-12-07T04:59:39.046Z,921.54
2016-12-07T05:00:49.719Z,921.54
2016-12-07T05:02:00.405Z,921.53
2016-12-07T05:03:11.118Z,921.56
2016-12-07T05:04:21.803Z,921.54
2016-12-07T05:05:32.487Z,921.6
2016-12-07T05:06:43.170Z,921.62
2016-12-07T05:07:53.863Z,921.62
2016-12-07T05:09:04.523Z,921.63
2016-12-07T05:10:15.215Z,921.56
2016-12-07T05:11:25.904Z,921.57
2016-12-07T05:12:36.599Z,921.54
2016-12-07T05:13:47.265Z,921.52
2016-12-07T05:14:57.932Z,921.55
2016-12-07T05:16:08.633Z,921.56
2016-12-07T05:17:19.814Z,921.54
2016-12-07T05:18:30.506Z,921.52
2016-12-07T05:19:41.195Z,921.49
2016-12-07T05:20:51.870Z,921.48
2016-12-07T05:22:02.580Z,921.48
2016-12-07T05:23:13.257Z,921.44
2016-12-07T05:24:23.963Z,921.47
2016-12-07T05:25:34.659Z,921.43
2016-12-07T05:26:45.396Z,921.42
2016-12-07T05:27:56.071Z,921.44
2016-12-07T05:29:06.758Z,921.44
2016-12-07T05:30:17.412Z,921.49
2016-12-07T05:31:28.081Z,921.51
2016-12-07T05:32:38.811Z,921.47
2016-12-07T05:33:49.483Z,921.4
2016-12-07T05:35:00.130Z,921.31
2016-12-07T05:36:10.788Z,921.24
2016-12-07T05:37:21.491Z,921.19
2016-12-07T05:38:32.152Z,921.23
2016-12-07T05:39:42.856Z,921.21
2016-12-07T05:40:53.566Z,921.2
2016-12-07T05:42:04.258Z,921.19
2016-12-07T05:43:14.975Z,921.2
2016-12-07T05:44:25.686Z,921.2
2016-12-07T05:45:36.380Z,921.21
2016-12-07T05:46:47.072Z,921.2
2016-12-07T05:47:57.741Z,921.14
2016-12-07T05:49:08.396Z,921.14
2016-12-07T05:50:19.098Z,921.08
2016-12-07T05:51:29.752Z,921.05
2016-12-07T05:52:40.470Z,921.04
2016-12-07T05:53:51.140Z,921.07
2016-12-07T05:55:01.873Z,921.09
2016-12-07T05:56:12.572Z,921.19
2016-12-07T05:57:23.793Z,921.14
2016-12-07T05:58:34.448Z,921.09
2016-12-07T05:59:45.142Z,921
2016-12-07T06:00:55.829Z,921
2016-12-07T06:02:07.022Z,921.02
2016-12-07T06:03:17.714Z,921
2016-12-07T06:04:28.416Z,921.04
2016-12-07T06:05:39.102Z,921.07
2016-12-07T06:06:50.284Z,921.02
2016-12-07T06:08:00.963Z,920.98
2016-12-07T06:09:11.635Z,920.91
2016-12-07T06:10:22.398Z,920.9
2016-12-07T06:11:33.170Z,920.93
2016-12-07T06:12:43.836Z,920.96
2016-12-07T06:13:54.510Z,920.99
2016-12-07T06:15:05.192Z,921
2016-12-07T06:16:15.869Z,920.97
2016-12-07T06:17:26.562Z,920.9
2016-12-07T06:18:37.222Z,920.82
2016-12-07T06:19:47.886Z,920.76
2016-12-07T06:20:58.571Z,920.73
2016-12-07T06:22:09.248Z,920.74
2016-12-07T06:23:19.934Z,920.73
2016-12-07T06:24:30.614Z,920.7
2016-12-07T06:25:41.278Z,920.72
2016-12-07T06:26:51.954Z,920.75
2016-12-07T06:28:02.616Z,920.85
2016-12-07T06:29:13.288Z,920.86
2016-12-07T06:30:23.963Z,920.89
2016-12-07T06:31:34.637Z,920.91
2016-12-07T06:32:45.304Z,920.88
2016-12-07T06:33:55.990Z,920.83
2016-12-07T06:35:06.696Z,920.73
2016-12-07T06:36:17.377Z,920.67
2016-12-07T06:37:28.164Z,920.63
2016-12-07T06:38:38.870Z,920.61
2016-12-07T06:39:49.585Z,920.61
2016-12-07T06:41:00.265Z,920.61
2016-12-07T06:42:11.963Z,920.64
2016-12-07T06:43:23.203Z,920.67
2016-12-07T06:44:33.881Z,920.72
2016-12-07T06:45:44.545Z,920.78
2016-12-07T06:46:55.217Z,920.76
2016-12-07T06:48:05.898Z,920.74
2016-12-07T06:49:16.606Z,920.78
2016-12-07T06:50:27.253Z,920.8
2016-12-07T06:51:37.932Z,920.75
2016-12-07T06:52:48.602Z,920.69
2016-12-07T06:53:59.299Z,920.74
2016-12-07T06:55:09.959Z,920.73
2016-12-07T06:56:20.631Z,920.78
2016-12-07T06:57:31.338Z,920.8
2016-12-07T06:58:42.049Z,920.81
2016-12-07T06:59:52.750Z,920.84
2016-12-07T07:01:03.432Z,920.89
2016-12-07T07:02:14.133Z,920.94
2016-12-07T07:03:24.822Z,921.06
2016-12-07T07:04:35.485Z,921.21
2016-12-07T07:05:46.177Z,921.25
2016-12-07T07:06:57.379Z,921.23
2016-12-07T07:08:08.082Z,921.2
2016-12-07T07:09:19.289Z,921.23
2016-12-07T07:10:29.960Z,921.3
2016-12-07T07:11:40.650Z,921.35
2016-12-07T07:12:51.327Z,921.44
2016-12-07T07:14:02.024Z,921.51
2016-12-07T07:15:12.728Z,921.57
2016-12-07T07:16:23.419Z,921.58
2016-12-07T07:17:34.124Z,921.62
2016-12-07T07:18:44.824Z,921.65
2016-12-07T07:19:55.496Z,921.67
2016-12-07T07:21:06.191Z,921.69
2016-12-07T07:22:16.877Z,921.71
2016-12-07T07:23:27.557Z,921.82
2016-12-07T07:24:38.267Z,921.85
2016-12-07T07:25:48.932Z,921.93
2016-12-07T07:26:59.654Z,922
2016-12-07T07:28:10.359Z,922.1
2016-12-07T07:29:21.050Z,922.13
2016-12-07T07:30:31.749Z,922.11
2016-12-07T07:31:42.450Z,922.14
2016-12-07T07:32:53.121Z,922.18
2016-12-07T07:34:03.811Z,922.13
2016-12-07T07:35:14.492Z,922.16
2016-12-07T07:36:25.194Z,922.21
2016-12-07T07:37:35.911Z,922.28
2016-12-07T07:38:46.584Z,922.35
2016-12-07T07:39:57.275Z,922.3
2016-12-07T07:41:08.009Z,922.41
2016-12-07T07:42:18.712Z,922.46
2016-12-07T07:43:29.394Z,922.46
2016-12-07T07:44:40.076Z,922.45
2016-12-07T07:45:50.779Z,922.49
2016-12-07T07:47:01.458Z,922.43
2016-12-07T07:48:12.162Z,922.4
2016-12-07T07:49:22.882Z,922.39
2016-12-07T07:50:33.586Z,922.35
2016-12-07T07:51:44.280Z,922.34
2016-12-07T07:52:54.995Z,922.4
2016-12-07T07:54:05.688Z,922.45
2016-12-07T07:55:16.391Z,922.45
2016-12-07T07:56:27.091Z,922.53
2016-12-07T07:57:37.777Z,922.52
2016-12-07T07:58:48.447Z,922.54
2016-12-07T07:59:59.117Z,922.53
2016-12-07T08:01:09.863Z,922.55
2016-12-07T08:02:20.582Z,922.57
2016-12-07T08:03:31.270Z,922.6
2016-12-07T08:04:41.971Z,922.63
2016-12-07T08:05:52.645Z,922.67
2016-12-07T08:07:03.846Z,922.68
2016-12-07T08:08:15.051Z,922.67
2016-12-07T08:09:25.755Z,922.64
2016-12-07T08:10:36.432Z,922.61
2016-12-07T08:11:47.096Z,922.6
2016-12-07T08:12:57.807Z,922.6
2016-12-07T08:14:08.499Z,922.62
2016-12-07T08:15:19.159Z,922.61
2016-12-07T08:16:29.843Z,922.62
2016-12-07T08:17:41.077Z,922.71
2016-12-07T08:18:51.759Z,922.84
2016-12-07T08:20:02.459Z,922.93
2016-12-07T08:21:13.153Z,923
2016-12-07T08:22:23.833Z,922.98
2016-12-07T08:23:34.515Z,923.04
2016-12-07T08:24:45.220Z,922.97
2016-12-07T08:25:55.904Z,923
2016-12-07T08:27:06.607Z,922.94
2016-12-07T08:28:17.286Z,922.97
2016-12-07T08:29:28.576Z,922.96
2016-12-07T08:30:39.289Z,922.95
2016-12-07T08:31:49.953Z,922.91
2016-12-07T08:33:00.646Z,922.96
2016-12-07T08:34:11.864Z,922.98
2016-12-07T08:35:22.561Z,923.02
2016-12-07T08:36:33.285Z,923.05
2016-12-07T08:37:43.958Z,923.08
2016-12-07T08:38:54.629Z,923.08
2016-12-07T08:40:05.357Z,923.11
2016-12-07T08:41:16.020Z,923.12
2016-12-07T08:42:26.691Z,923.13
2016-12-07T08:43:37.363Z,923.12
2016-12-07T08:44:48.616Z,923.17
2016-12-07T08:45:59.404Z,923.16
2016-12-07T08:47:10.090Z,923.19
2016-12-07T08:48:20.805Z,923.16
2016-12-07T08:49:31.466Z,923.14
2016-12-07T08:50:42.170Z,923.19
2016-12-07T08:51:52.866Z,923.23
2016-12-07T08:53:03.575Z,923.24
2016-12-07T08:54:14.268Z,923.23
2016-12-07T08:55:24.954Z,923.26
2016-12-07T08:56:35.656Z,923.29
2016-12-07T08:57:46.347Z,923.29
2016-12-07T08:58:57.037Z,923.34
2016-12-07T09:00:07.743Z,923.34
2016-12-07T09:01:18.439Z,923.31
2016-12-07T09:02:29.138Z,923.29
2016-12-07T09:03:39.797Z,923.28
2016-12-07T09:04:51.012Z,923.24
2016-12-07T09:06:01.703Z,923.25
2016-12-07T09:07:12.436Z,923.29
2016-12-07T09:08:23.110Z,923.3
2016-12-07T09:09:33.796Z,923.29
2016-12-07T09:10:44.474Z,923.29
2016-12-07T09:11:55.153Z,923.27
2016-12-07T09:13:05.842Z,923.27
2016-12-07T09:14:16.529Z,923.23
2016-12-07T09:15:27.242Z,923.2
2016-12-07T09:16:37.954Z,923.2
2016-12-07T09:17:48.891Z,923.18
2016-12-07T09:18:59.562Z,923.25
2016-12-07T09:20:10.242Z,923.29
2016-12-07T09:21:20.968Z,923.31
2016-12-07T09:22:31.655Z,923.32
2016-12-07T09:23:42.324Z,923.34
2016-12-07T09:24:53.553Z,923.37
2016-12-07T09:26:04.272Z,923.36
2016-12-07T09:27:15.496Z,923.36
2016-12-07T09:28:26.185Z,923.39
2016-12-07T09:29:36.900Z,923.4
2016-12-07T09:30:47.575Z,923.44
2016-12-07T09:31:58.260Z,923.44
2016-12-07T09:33:08.952Z,923.45
2016-12-07T09:34:20.159Z,923.48
2016-12-07T09:35:30.858Z,923.53
2016-12-07T09:36:41.557Z,923.52
2016-12-07T09:37:52.307Z,923.57
2016-12-07T09:39:03.000Z,923.59
2016-12-07T09:40:13.669Z,923.55
2016-12-07T09:41:24.891Z,923.57
2016-12-07T09:42:35.604Z,923.56
2016-12-07T09:43:46.267Z,923.52
2016-12-07T09:44:56.969Z,923.55
2016-12-07T09:46:07.690Z,923.54
2016-12-07T09:47:18.378Z,923.52
2016-12-07T09:48:29.079Z,923.54
2016-12-07T09:49:39.772Z,923.51
2016-12-07T09:50:50.471Z,923.52
2016-12-07T09:52:01.159Z,923.53
2016-12-07T09:53:11.877Z,923.54
2016-12-07T09:54:22.610Z,923.49
2016-12-07T09:55:33.310Z,923.5
2016-12-07T09:56:44.002Z,923.53
2016-12-07T09:57:55.200Z,923.52
2016-12-07T09:59:05.884Z,923.53
2016-12-07T10:00:16.598Z,923.58
2016-12-07T10:01:27.303Z,923.61
2016-12-07T10:02:38.026Z,923.63
2016-12-07T10:03:48.720Z,923.66
2016-12-07T10:04:59.441Z,923.69
2016-12-07T10:06:10.146Z,923.7
2016-12-07T10:07:20.851Z,923.67
2016-12-07T10:08:31.573Z,923.74
2016-12-07T10:09:42.282Z,923.66
2016-12-07T10:10:53.007Z,923.66
2016-12-07T10:12:03.717Z,923.66
2016-12-07T10:13:14.390Z,923.73
2016-12-07T10:14:25.095Z,923.7
2016-12-07T10:15:35.770Z,923.75
2016-12-07T10:16:46.968Z,923.78
2016-12-07T10:17:57.635Z,923.79
2016-12-07T10:19:08.314Z,923.81
2016-12-07T10:20:19.511Z,923.8
2016-12-07T10:21:30.205Z,923.78
2016-12-07T10:22:40.944Z,923.72
2016-12-07T10:23:52.167Z,923.76
2016-12-07T10:25:02.877Z,923.72
2016-12-07T10:26:13.574Z,923.72
2016-12-07T10:27:24.260Z,923.71
2016-12-07T10:28:34.972Z,923.73
2016-12-07T10:29:45.687Z,923.76
2016-12-07T10:30:56.803Z,923.71
2016-12-07T10:32:07.511Z,923.71
2016-12-07T10:33:18.224Z,923.72
2016-12-07T10:34:28.915Z,923.72
2016-12-07T10:35:39.630Z,923.72
2016-12-07T10:36:50.343Z,923.68
2016-12-07T10:38:01.104Z,923.71
2016-12-07T10:39:11.798Z,923.72
2016-12-07T10:40:22.470Z,923.72
2016-12-07T10:41:33.157Z,923.74
2016-12-07T10:42:43.839Z,923.76
2016-12-07T10:43:54.533Z,923.71
2016-12-07T10:45:05.231Z,923.67
2016-12-07T10:46:15.938Z,923.67
2016-12-07T10:47:26.643Z,923.71
2016-12-07T10:48:37.384Z,923.66
2016-12-07T10:49:48.048Z,923.64
2016-12-07T10:50:58.718Z,923.68
2016-12-07T10:52:09.421Z,923.67
2016-12-07T10:53:20.128Z,923.71
2016-12-07T10:54:30.847Z,923.7
2016-12-07T10:55:41.539Z,923.71
2016-12-07T10:56:52.229Z,923.73
2016-12-07T10:58:03.074Z,923.73
2016-12-07T10:59:13.752Z,923.75
2016-12-07T11:00:24.448Z,923.78
2016-12-07T11:01:35.124Z,923.78
2016-12-07T11:02:46.366Z,923.84
2016-12-07T11:03:57.281Z,923.85
2016-12-07T11:05:08.471Z,923.86
2016-12-07T11:06:19.186Z,923.86
2016-12-07T11:07:29.919Z,923.89
2016-12-07T11:08:40.641Z,923.86
2016-12-07T11:09:51.331Z,923.87
2016-12-07T11:11:02.060Z,923.87
2016-12-07T11:12:12.755Z,923.83
2016-12-07T11:13:23.965Z,923.83
2016-12-07T11:14:34.640Z,923.81
2016-12-07T11:15:45.839Z,923.84
2016-12-07T11:16:56.539Z,923.81
2016-12-07T11:18:07.201Z,923.79
2016-12-07T11:19:17.877Z,923.8
2016-12-07T11:20:28.603Z,923.8
2016-12-07T11:21:39.330Z,923.82
2016-12-07T11:22:50.031Z,923.83
2016-12-07T11:24:00.704Z,923.83
2016-12-07T11:25:11.429Z,923.82
2016-12-07T11:26:22.147Z,923.82
2016-12-07T11:27:32.869Z,923.76
2016-12-07T11:28:43.559Z,923.76
2016-12-07T11:29:54.282Z,923.76
2016-12-07T11:31:04.985Z,923.75
2016-12-07T11:32:15.699Z,923.75
2016-12-07T11:33:26.395Z,923.77
2016-12-07T11:34:37.108Z,923.71
2016-12-07T11:35:47.826Z,923.74
2016-12-07T11:36:59.573Z,923.75
2016-12-07T11:38:10.307Z,923.71
2016-12-07T11:39:21.013Z,923.74
2016-12-07T11:40:31.722Z,923.73
2016-12-07T11:41:42.428Z,923.73
2016-12-07T11:42:53.099Z,923.74
2016-12-07T11:44:03.791Z,923.73
2016-12-07T11:45:14.495Z,923.7
2016-12-07T11:46:25.236Z,923.7
2016-12-07T11:47:45.303Z,923.69
2016-12-07T11:48:55.973Z,923.75
2016-12-07T11:50:06.719Z,923.74
2016-12-07T11:51:17.399Z,923.71
2016-12-07T11:52:28.128Z,923.69
2016-12-07T11:53:38.845Z,923.66
2016-12-07T11:54:49.569Z,923.69
2016-12-07T11:56:00.782Z,923.63
2016-12-07T11:57:11.990Z,923.67
2016-12-07T11:58:22.699Z,923.66
2016-12-07T11:59:33.421Z,923.68
2016-12-07T12:00:44.134Z,923.67
2016-12-07T12:01:54.854Z,923.63
2016-12-07T12:03:05.556Z,923.63
2016-12-07T12:04:16.816Z,923.71
2016-12-07T12:05:27.521Z,923.71
2016-12-07T12:06:38.223Z,923.66
2016-12-07T12:07:48.913Z,923.7
2016-12-07T12:08:59.639Z,923.69
2016-12-07T12:10:10.332Z,923.69
2016-12-07T12:11:21.582Z,923.65
2016-12-07T12:12:32.802Z,923.67
2016-12-07T12:13:43.514Z,923.65
2016-12-07T12:14:54.207Z,923.71
2016-12-07T12:16:04.966Z,923.71
2016-12-07T12:17:15.658Z,923.7
2016-12-07T12:18:26.876Z,923.72
2016-12-07T12:19:37.572Z,923.7
2016-12-07T12:20:48.284Z,923.66
2016-12-07T12:21:59.032Z,923.68
2016-12-07T12:23:10.405Z,923.65
2016-12-07T12:24:21.105Z,923.64
2016-12-07T12:25:31.798Z,923.67
2016-12-07T12:26:42.538Z,923.69
2016-12-07T12:27:53.784Z,923.67
2016-12-07T12:29:04.501Z,923.64
2016-12-07T12:30:15.218Z,923.62
2016-12-07T12:31:25.954Z,923.59
2016-12-07T12:32:36.733Z,923.64
2016-12-07T12:33:47.451Z,923.63
2016-12-07T12:34:58.187Z,923.57
2016-12-07T12:36:08.898Z,923.57
2016-12-07T12:37:20.091Z,923.57
2016-12-07T12:38:31.309Z,923.53
2016-12-07T12:39:42.027Z,923.49
2016-12-07T12:40:52.722Z,923.45
2016-12-07T12:42:03.975Z,923.44
2016-12-07T12:43:14.679Z,923.46
2016-12-07T12:44:25.478Z,923.48
2016-12-07T12:45:37.252Z,923.49
2016-12-07T12:46:49.148Z,923.47
2016-12-07T12:48:01.281Z,923.49
2016-12-07T12:49:15.158Z,923.53
2016-12-07T12:50:28.234Z,923.52
2016-12-07T12:51:40.134Z,923.45
2016-12-07T12:52:51.607Z,923.37
2016-12-07T12:54:02.313Z,923.41
2016-12-07T12:55:14.415Z,923.43
